createdAt,value
2022-10-02T00:00:55.958Z,4.88
2022-10-02T00:03:44.010Z,4.85
2022-10-02T00:06:41.270Z,4.68
2022-10-02T00:09:31.650Z,4.32
2022-10-02T00:12:21.018Z,4.97
2022-10-02T00:15:15.240Z,4.45
2022-10-02T00:18:05.765Z,4.55
2022-10-02T00:20:58.886Z,5.45
2022-10-02T00:23:49.095Z,4.68
2022-10-02T00:26:43.050Z,6.07
2022-10-02T00:29:39.168Z,5.00
2022-10-02T00:32:32.206Z,4.82
2022-10-02T00:35:29.676Z,5.63
2022-10-02T00:38:22.772Z,5.50
2022-10-02T00:41:22.286Z,5.32
2022-10-02T00:44:19.902Z,5.00
2022-10-02T00:47:13.102Z,5.57
2022-10-02T00:50:06.185Z,5.78
2022-10-02T00:53:05.576Z,5.68
2022-10-02T00:55:58.628Z,6.20
2022-10-02T00:58:54.597Z,6.43
2022-10-02T01:01:49.717Z,7.15
2022-10-02T01:04:39.426Z,6.35
2022-10-02T01:07:28.398Z,6.55
2022-10-02T01:10:16.735Z,6.55
2022-10-02T01:13:03.844Z,7.03
2022-10-02T01:15:52.882Z,8.05
2022-10-02T01:18:41.808Z,8.18
2022-10-02T01:21:32.168Z,8.48
2022-10-02T01:24:22.256Z,8.02
2022-10-02T01:27:10.638Z,8.63
2022-10-02T01:30:01.195Z,8.63
2022-10-02T01:32:50.011Z,8.77
2022-10-02T01:35:39.002Z,9.93
2022-10-02T01:38:26.315Z,9.73
2022-10-02T01:41:13.835Z,10.75
2022-10-02T01:44:03.537Z,10.43
2022-10-02T01:46:55.302Z,10.45
2022-10-02T01:49:53.212Z,10.45
2022-10-02T01:52:48.091Z,10.35
2022-10-02T01:55:40.614Z,9.85
2022-10-02T01:58:32.584Z,10.63
2022-10-02T02:01:26.213Z,10.85
2022-10-02T02:04:18.811Z,9.88
2022-10-02T02:07:08.827Z,10.35
2022-10-02T02:09:57.641Z,9.85
2022-10-02T02:12:46.505Z,11.63
2022-10-02T02:15:37.893Z,10.63
2022-10-02T02:18:29.458Z,10.95
2022-10-02T02:21:22.117Z,10.18
2022-10-02T02:24:12.361Z,10.60
2022-10-02T02:27:01.456Z,10.57
2022-10-02T02:29:50.598Z,10.00
2022-10-02T02:32:38.799Z,10.48
2022-10-02T02:35:28.854Z,9.95
2022-10-02T02:38:18.034Z,10.50
2022-10-02T02:41:07.173Z,11.07
2022-10-02T02:43:59.050Z,10.73
2022-10-02T02:47:07.052Z,9.38
2022-10-02T02:49:56.346Z,10.02
2022-10-02T02:52:46.582Z,10.25
2022-10-02T02:55:34.893Z,11.23
2022-10-02T02:58:23.765Z,10.35
2022-10-02T03:01:10.918Z,9.60
2022-10-02T03:03:57.936Z,10.35
2022-10-02T03:06:46.110Z,10.13
2022-10-02T03:09:34.802Z,11.82
2022-10-02T03:12:27.389Z,11.00
2022-10-02T03:15:17.378Z,12.10
2022-10-02T03:18:15.337Z,11.93
2022-10-02T03:21:07.656Z,11.68
2022-10-02T03:23:57.581Z,11.55
2022-10-02T03:26:49.719Z,11.15
2022-10-02T03:29:38.347Z,9.55
2022-10-02T03:32:26.007Z,10.93
2022-10-02T03:35:13.918Z,9.77
2022-10-02T03:38:03.846Z,9.85
2022-10-02T03:40:53.045Z,10.85
2022-10-02T03:43:41.530Z,11.15
2022-10-02T03:46:29.512Z,9.57
2022-10-02T03:49:17.041Z,11.55
2022-10-02T03:52:04.209Z,10.50
2022-10-02T03:54:53.238Z,11.25
2022-10-02T03:57:40.910Z,11.18
2022-10-02T04:00:32.349Z,9.35
2022-10-02T04:03:21.887Z,8.43
2022-10-02T04:06:13.286Z,8.73
2022-10-02T04:09:04.047Z,7.00
2022-10-02T04:11:55.219Z,6.13
2022-10-02T04:14:45.815Z,4.43
2022-10-02T04:17:38.382Z,4.35
2022-10-02T04:20:28.046Z,3.80
2022-10-02T04:23:17.295Z,3.78
2022-10-02T04:26:06.107Z,2.88
2022-10-02T04:28:56.222Z,3.25
2022-10-02T04:31:43.353Z,3.00
2022-10-02T04:34:31.931Z,2.67
2022-10-02T04:37:31.877Z,2.65
2022-10-02T04:40:27.610Z,2.60
2022-10-02T04:43:21.914Z,2.90
2022-10-02T04:46:15.366Z,3.15
2022-10-02T04:49:12.614Z,3.10
2022-10-02T04:52:06.848Z,3.45
2022-10-02T04:55:04.731Z,3.38
2022-10-02T04:58:00.748Z,3.50
2022-10-02T05:00:50.305Z,3.28
2022-10-02T05:03:45.603Z,2.97
2022-10-02T05:06:42.038Z,2.60
2022-10-02T05:09:32.749Z,3.53
2022-10-02T05:12:33.662Z,3.08
2022-10-02T05:15:30.014Z,1.77
2022-10-02T05:18:26.522Z,2.30
2022-10-02T05:21:19.018Z,1.70
2022-10-02T05:24:17.942Z,1.70
2022-10-02T05:27:14.341Z,1.88
2022-10-02T05:30:07.922Z,2.20
2022-10-02T05:33:06.967Z,1.80
2022-10-02T05:36:01.795Z,2.03
2022-10-02T05:38:58.218Z,2.00
2022-10-02T05:41:49.141Z,2.60
2022-10-02T05:44:39.311Z,3.78
2022-10-02T05:47:28.951Z,4.10
2022-10-02T05:50:17.983Z,3.50
2022-10-02T05:53:07.378Z,4.15
2022-10-02T05:55:55.796Z,5.18
2022-10-02T05:58:45.150Z,5.20
2022-10-02T06:01:35.086Z,4.93
2022-10-02T06:04:26.859Z,5.88
2022-10-02T06:07:15.439Z,6.45
2022-10-02T06:10:04.185Z,5.82
2022-10-02T06:12:54.888Z,5.82
2022-10-02T06:15:48.289Z,7.13
2022-10-02T06:18:38.578Z,5.13
2022-10-02T06:21:29.496Z,4.75
2022-10-02T06:24:18.635Z,5.40
2022-10-02T06:27:10.795Z,3.92
2022-10-02T06:29:59.406Z,4.18
2022-10-02T06:32:50.023Z,4.32
2022-10-02T06:35:49.034Z,3.97
2022-10-02T06:38:42.026Z,3.92
2022-10-02T06:41:34.776Z,4.03
2022-10-02T06:44:27.581Z,5.00
2022-10-02T06:47:18.359Z,5.20
2022-10-02T06:50:18.149Z,6.18
2022-10-02T06:53:13.959Z,7.45
2022-10-02T06:56:04.018Z,8.85
2022-10-02T06:58:58.600Z,8.38
2022-10-02T07:01:57.073Z,9.80
2022-10-02T07:04:51.825Z,10.45
2022-10-02T07:07:44.710Z,10.82
2022-10-02T07:10:36.299Z,10.13
2022-10-02T07:13:30.784Z,11.63
2022-10-02T07:16:25.745Z,11.85
2022-10-02T07:19:24.267Z,9.40
2022-10-02T07:22:43.506Z,10.45
2022-10-02T07:25:43.013Z,10.13
2022-10-02T07:28:34.825Z,10.60
2022-10-02T07:31:26.408Z,10.48
2022-10-02T07:34:21.329Z,10.18
2022-10-02T07:37:12.709Z,9.52
2022-10-02T07:40:10.511Z,9.90
2022-10-02T07:43:07.625Z,7.03
2022-10-02T07:45:58.355Z,7.55
2022-10-02T07:48:54.659Z,6.90
2022-10-02T07:51:50.108Z,6.85
2022-10-02T07:54:45.498Z,7.72
2022-10-02T07:57:37.422Z,8.52
2022-10-02T08:00:26.750Z,8.45
2022-10-02T08:03:15.937Z,7.72
2022-10-02T08:06:03.730Z,9.27
2022-10-02T08:08:53.481Z,9.05
2022-10-02T08:11:49.147Z,9.98
2022-10-02T08:14:39.545Z,9.70
2022-10-02T08:17:30.246Z,10.20
2022-10-02T08:20:21.285Z,10.68
2022-10-02T08:23:10.800Z,10.57
2022-10-02T08:26:03.508Z,10.35
2022-10-02T08:28:53.452Z,9.43
2022-10-02T08:31:43.868Z,8.15
2022-10-02T08:34:34.941Z,6.55
2022-10-02T08:37:28.962Z,6.70
2022-10-02T08:40:34.277Z,5.30
2022-10-02T08:43:35.264Z,5.85
2022-10-02T08:46:41.922Z,6.38
2022-10-02T08:49:48.853Z,8.93
2022-10-02T08:52:47.092Z,9.98
2022-10-02T08:55:50.669Z,10.27
2022-10-02T08:58:57.902Z,10.93
2022-10-02T09:01:59.803Z,10.77
2022-10-02T09:05:10.958Z,11.35
2022-10-02T09:08:15.618Z,11.68
2022-10-02T09:11:37.288Z,11.48
2022-10-02T09:14:39.594Z,11.80
2022-10-02T09:17:37.112Z,12.73
2022-10-02T09:20:39.266Z,12.10
2022-10-02T09:23:43.368Z,12.50
2022-10-02T09:26:44.290Z,11.00
2022-10-02T09:29:54.063Z,12.13
2022-10-02T09:32:58.671Z,12.02
2022-10-02T09:38:42.721Z,11.52
2022-10-02T09:41:40.041Z,11.10
2022-10-02T09:44:47.386Z,12.80
2022-10-02T09:47:54.071Z,11.25
2022-10-02T09:50:50.112Z,11.60
2022-10-02T09:53:52.389Z,10.85
2022-10-02T09:56:46.986Z,10.05
2022-10-02T09:59:58.753Z,9.80
2022-10-02T10:02:59.532Z,9.75
2022-10-02T10:05:54.124Z,9.10
2022-10-02T10:08:50.772Z,9.10
2022-10-02T10:11:44.146Z,9.57
2022-10-02T10:14:52.252Z,9.17
2022-10-02T10:18:00.950Z,11.70
2022-10-02T10:21:06.707Z,9.13
2022-10-02T10:24:00.687Z,11.13
2022-10-02T10:26:57.379Z,9.20
2022-10-02T10:30:00.927Z,8.95
2022-10-02T10:33:07.108Z,7.90
2022-10-02T10:36:31.870Z,6.47
2022-10-02T10:39:31.648Z,6.30
2022-10-02T10:43:03.052Z,5.72
2022-10-02T10:45:57.306Z,5.88
2022-10-02T10:48:54.243Z,6.07
2022-10-02T10:51:46.457Z,5.57
2022-10-02T10:54:54.500Z,5.30
2022-10-02T10:57:48.022Z,6.32
2022-10-02T11:00:39.813Z,6.10
2022-10-02T11:03:38.974Z,6.38
2022-10-02T11:06:41.834Z,7.25
2022-10-02T11:09:42.857Z,6.97
2022-10-02T11:12:45.284Z,7.28
2022-10-02T11:15:44.528Z,8.25
2022-10-02T11:18:52.089Z,6.20
2022-10-02T11:21:48.185Z,7.28
2022-10-02T11:24:50.916Z,7.95
2022-10-02T11:27:58.860Z,8.15
2022-10-02T11:30:51.867Z,7.95
2022-10-02T11:33:44.408Z,8.40
2022-10-02T11:36:44.383Z,7.18
2022-10-02T11:39:38.728Z,7.82
2022-10-02T11:42:34.735Z,8.77
2022-10-02T11:45:37.162Z,6.85
2022-10-02T11:48:39.163Z,6.25
2022-10-02T11:51:37.793Z,5.95
2022-10-02T11:54:28.513Z,5.43
2022-10-02T11:57:22.492Z,6.68
2022-10-02T12:00:14.913Z,5.38
2022-10-02T12:03:07.033Z,5.82
2022-10-02T12:05:58.916Z,6.20
2022-10-02T12:08:54.822Z,5.05
2022-10-02T12:11:46.385Z,4.97
2022-10-02T12:14:35.881Z,5.20
2022-10-02T12:17:30.953Z,5.57
2022-10-02T12:20:40.275Z,5.07
2022-10-02T12:23:50.102Z,5.05
2022-10-02T12:27:00.837Z,4.70
2022-10-02T12:29:57.850Z,5.55
2022-10-02T12:32:54.726Z,5.50
2022-10-02T12:35:51.670Z,5.40
2022-10-02T12:38:44.741Z,5.35
2022-10-02T12:41:47.304Z,5.77
2022-10-02T12:44:39.323Z,5.40
2022-10-02T12:47:36.026Z,5.65
2022-10-02T12:50:25.882Z,5.30
2022-10-02T12:53:24.452Z,5.20
2022-10-02T12:56:25.945Z,5.60
2022-10-02T12:59:17.382Z,5.13
2022-10-02T13:02:49.255Z,5.60
2022-10-02T13:05:47.057Z,5.13
2022-10-02T13:08:43.139Z,6.07
2022-10-02T13:11:36.814Z,5.22
2022-10-02T13:14:33.218Z,5.25
2022-10-02T13:17:27.183Z,4.90
2022-10-02T13:20:20.298Z,4.85
2022-10-02T13:23:13.794Z,4.75
2022-10-02T13:26:08.633Z,4.22
2022-10-02T13:29:07.565Z,4.50
2022-10-02T13:31:59.080Z,3.50
2022-10-02T13:34:54.178Z,3.97
2022-10-02T13:37:48.332Z,4.03
2022-10-02T13:40:40.644Z,3.20
2022-10-02T13:43:38.063Z,3.05
2022-10-02T13:46:32.416Z,3.30
2022-10-02T13:49:27.050Z,3.17
2022-10-02T13:52:18.700Z,2.95
2022-10-02T13:55:17.927Z,3.58
2022-10-02T13:58:19.698Z,2.72
2022-10-02T14:01:15.857Z,3.17
2022-10-02T14:04:12.537Z,3.13
2022-10-02T14:07:05.419Z,2.95
2022-10-02T14:09:55.812Z,3.28
2022-10-02T14:12:51.353Z,3.20
2022-10-02T14:15:46.299Z,2.70
2022-10-02T14:18:40.592Z,3.03
2022-10-02T14:21:30.963Z,3.65
2022-10-02T14:24:23.099Z,2.70
2022-10-02T14:27:14.698Z,2.85
2022-10-02T14:30:03.939Z,3.20
2022-10-02T14:32:55.541Z,3.08
2022-10-02T14:35:49.802Z,3.15
2022-10-02T14:41:49.107Z,4.75
2022-10-02T14:44:45.067Z,3.88
2022-10-02T14:47:43.063Z,3.70
2022-10-02T14:50:38.179Z,3.60
2022-10-02T14:53:40.459Z,4.32
2022-10-02T14:56:39.471Z,4.97
2022-10-02T14:59:44.360Z,4.35
2022-10-02T15:02:40.222Z,4.75
2022-10-02T15:05:36.122Z,4.75
2022-10-02T15:08:25.398Z,4.60
2022-10-02T15:11:21.995Z,4.80
2022-10-02T15:14:12.708Z,4.35
2022-10-02T15:17:18.558Z,4.80
2022-10-02T15:20:07.448Z,5.05
2022-10-02T15:22:56.692Z,4.20
2022-10-02T15:26:03.023Z,4.47
2022-10-02T15:28:59.717Z,4.93
2022-10-02T15:32:07.483Z,4.30
2022-10-02T15:34:59.550Z,5.18
2022-10-02T15:37:50.207Z,3.83
2022-10-02T15:40:42.782Z,4.43
2022-10-02T15:43:40.481Z,4.22
2022-10-02T15:46:31.924Z,4.97
2022-10-02T15:49:23.507Z,4.47
2022-10-02T15:52:16.036Z,4.15
2022-10-02T15:55:10.658Z,4.40
2022-10-02T15:58:21.288Z,4.00
2022-10-02T16:01:21.812Z,4.15
2022-10-02T16:04:15.257Z,4.45
2022-10-02T16:07:21.257Z,5.10
2022-10-02T16:10:14.942Z,4.95
2022-10-02T16:13:08.736Z,4.38
2022-10-02T16:16:00.472Z,4.95
2022-10-02T16:18:55.775Z,5.10
2022-10-02T16:22:01.588Z,5.70
2022-10-02T16:25:11.633Z,4.78
2022-10-02T16:28:04.271Z,5.95
2022-10-02T16:31:04.528Z,5.40
2022-10-02T16:34:03.184Z,4.57
2022-10-02T16:36:52.740Z,4.65
2022-10-02T16:39:48.231Z,5.05
2022-10-02T16:42:40.136Z,5.05
2022-10-02T16:45:35.726Z,4.88
2022-10-02T16:48:24.416Z,5.07
2022-10-02T16:51:17.367Z,4.85
2022-10-02T16:54:10.895Z,4.50
2022-10-02T16:57:02.572Z,4.50
2022-10-02T16:59:51.645Z,4.50
2022-10-02T17:02:44.311Z,4.70
2022-10-02T17:05:37.031Z,4.80
2022-10-02T17:08:29.048Z,5.20
2022-10-02T17:11:20.370Z,4.47
2022-10-02T17:14:14.775Z,5.28
2022-10-02T17:17:04.523Z,4.85
2022-10-02T17:19:54.876Z,4.57
2022-10-02T17:22:44.337Z,4.45
2022-10-02T17:25:33.996Z,4.28
2022-10-02T17:28:25.406Z,5.68
2022-10-02T17:31:35.725Z,4.43
2022-10-02T17:34:24.251Z,4.60
2022-10-02T17:37:35.971Z,4.22
2022-10-02T17:40:26.425Z,4.65
2022-10-02T17:43:17.231Z,4.00
2022-10-02T17:46:20.096Z,4.20
2022-10-02T17:49:15.170Z,4.30
2022-10-02T17:52:22.256Z,4.15
2022-10-02T17:55:34.797Z,3.63
2022-10-02T17:58:25.451Z,4.10
2022-10-02T18:01:17.813Z,3.60
2022-10-02T18:04:13.458Z,3.95
2022-10-02T18:07:08.754Z,3.75
2022-10-02T18:10:01.547Z,3.80
2022-10-02T18:13:01.023Z,3.85
2022-10-02T18:16:05.819Z,4.00
2022-10-02T18:19:00.237Z,3.80
2022-10-02T18:21:52.470Z,3.72
2022-10-02T18:24:52.023Z,4.05
2022-10-02T18:27:50.397Z,3.50
2022-10-02T18:30:41.821Z,3.28
2022-10-02T18:33:42.378Z,3.20
2022-10-02T18:36:36.488Z,3.33
2022-10-02T18:39:33.235Z,3.10
2022-10-02T18:42:29.964Z,3.75
2022-10-02T18:45:27.647Z,3.40
2022-10-02T18:48:22.716Z,3.50
2022-10-02T18:51:20.579Z,3.45
2022-10-02T18:54:17.957Z,3.53
2022-10-02T18:57:19.667Z,4.60
2022-10-02T19:00:16.091Z,3.70
2022-10-02T19:03:15.658Z,4.15
2022-10-02T19:06:09.217Z,5.15
2022-10-02T19:09:02.187Z,3.58
2022-10-02T19:11:50.149Z,3.88
2022-10-02T19:14:42.371Z,4.20
2022-10-02T19:17:30.971Z,4.20
2022-10-02T19:20:34.714Z,3.45
2022-10-02T19:23:24.408Z,4.55
2022-10-02T19:26:17.102Z,4.03
2022-10-02T19:29:08.739Z,4.22
2022-10-02T19:32:00.264Z,3.92
2022-10-02T19:34:49.475Z,3.88
2022-10-02T19:37:41.521Z,3.45
2022-10-02T19:40:36.501Z,3.63
2022-10-02T19:43:27.204Z,4.45
2022-10-02T19:46:17.030Z,3.30
2022-10-02T19:49:06.315Z,2.63
2022-10-02T19:51:54.980Z,3.13
2022-10-02T19:54:42.602Z,3.10
2022-10-02T19:57:32.779Z,2.75
2022-10-02T20:00:20.319Z,2.60
2022-10-02T20:03:09.567Z,2.35
2022-10-02T20:05:59.950Z,3.42
2022-10-02T20:08:49.110Z,3.25
2022-10-02T20:11:40.137Z,2.88
2022-10-02T20:14:30.621Z,3.10
2022-10-02T20:17:17.914Z,3.28
2022-10-02T20:20:07.990Z,3.22
2022-10-02T20:22:59.156Z,3.40
2022-10-02T20:25:49.018Z,3.22
2022-10-02T20:28:38.519Z,3.10
2022-10-02T20:31:30.030Z,3.30
2022-10-02T20:34:23.610Z,3.45
2022-10-02T20:37:14.262Z,3.47
2022-10-02T20:40:07.824Z,3.38
2022-10-02T20:42:58.350Z,3.40
2022-10-02T20:45:47.447Z,3.58
2022-10-02T20:49:09.214Z,3.22
2022-10-02T20:52:13.312Z,3.45
2022-10-02T20:55:02.306Z,3.53
2022-10-02T20:58:01.929Z,3.65
2022-10-02T21:00:53.878Z,3.78
2022-10-02T21:04:00.253Z,3.85
2022-10-02T21:06:55.523Z,3.90
2022-10-02T21:10:12.145Z,4.45
2022-10-02T21:13:16.533Z,4.13
2022-10-02T21:16:11.023Z,3.97
2022-10-02T21:19:13.251Z,3.47
2022-10-02T21:22:19.468Z,3.88
2022-10-02T21:25:26.441Z,4.18
2022-10-02T21:28:31.966Z,4.43
2022-10-02T21:31:29.238Z,3.63
2022-10-02T21:34:26.999Z,3.97
2022-10-02T21:37:18.430Z,4.10
2022-10-02T21:40:14.085Z,3.60
2022-10-02T21:43:09.300Z,3.80
2022-10-02T21:46:14.577Z,3.15
2022-10-02T21:49:14.148Z,3.15
2022-10-02T21:52:11.918Z,2.90
2022-10-02T21:55:17.039Z,4.18
2022-10-02T21:58:25.824Z,3.40
2022-10-02T22:01:25.473Z,3.20
2022-10-02T22:04:25.543Z,3.03
2022-10-02T22:07:15.877Z,3.20
2022-10-02T22:10:06.875Z,3.45
2022-10-02T22:13:02.318Z,3.13
2022-10-02T22:15:53.920Z,3.33
2022-10-02T22:18:48.425Z,2.97
2022-10-02T22:21:41.288Z,3.08
2022-10-02T22:24:40.678Z,3.53
2022-10-02T22:27:46.531Z,3.33
2022-10-02T22:30:39.195Z,3.72
2022-10-02T22:33:32.196Z,3.95
2022-10-02T22:36:32.525Z,3.72
2022-10-02T22:39:23.597Z,3.60
2022-10-02T22:42:13.787Z,4.05
2022-10-02T22:45:03.199Z,3.80
2022-10-02T22:47:54.479Z,3.90
2022-10-02T22:50:48.254Z,3.92
2022-10-02T22:53:39.287Z,4.47
2022-10-02T22:56:30.339Z,4.22
2022-10-02T22:59:20.046Z,3.95
2022-10-02T23:02:10.367Z,4.03
2022-10-02T23:05:05.269Z,4.80
2022-10-02T23:07:54.254Z,5.10
2022-10-02T23:10:45.435Z,4.47
2022-10-02T23:13:35.567Z,4.03
2022-10-02T23:16:24.983Z,4.03
2022-10-02T23:19:16.936Z,4.57
2022-10-02T23:22:09.935Z,5.10
2022-10-02T23:25:02.669Z,3.85
2022-10-02T23:27:54.069Z,4.38
2022-10-02T23:30:45.321Z,4.40
2022-10-02T23:33:39.725Z,4.50
2022-10-02T23:39:16.587Z,4.38
2022-10-02T23:42:04.803Z,4.93
2022-10-02T23:44:57.612Z,4.95
2022-10-02T23:47:48.512Z,5.13
2022-10-02T23:50:39.746Z,4.53
2022-10-02T23:53:38.112Z,5.65
2022-10-02T23:56:35.019Z,4.57
2022-10-02T23:59:32.328Z,4.57
